createdAt,value
2022-11-24T00:03:40.643Z,3.00
2022-11-24T00:06:10.830Z,3.50
2022-11-24T00:08:39.691Z,2.92
2022-11-24T00:11:09.471Z,2.97
2022-11-24T00:13:39.093Z,3.45
2022-11-24T00:16:13.047Z,2.65
2022-11-24T00:18:41.950Z,3.15
2022-11-24T00:21:10.176Z,2.60
2022-11-24T00:23:38.764Z,2.53
2022-11-24T00:26:08.672Z,3.17
2022-11-24T00:28:37.427Z,2.25
2022-11-24T00:31:06.951Z,3.10
2022-11-24T00:33:36.024Z,2.75
2022-11-24T00:36:03.705Z,2.45
2022-11-24T00:38:31.388Z,2.10
2022-11-24T00:40:59.063Z,2.05
2022-11-24T00:43:26.798Z,2.28
2022-11-24T00:45:54.624Z,2.88
2022-11-24T00:48:22.847Z,3.20
2022-11-24T00:50:58.605Z,2.67
2022-11-24T00:53:26.699Z,2.95
2022-11-24T00:55:55.158Z,3.10
2022-11-24T00:58:23.332Z,2.70
2022-11-24T01:03:20.103Z,2.53
2022-11-24T01:05:47.838Z,1.95
2022-11-24T01:08:17.189Z,2.50
2022-11-24T01:10:44.839Z,2.35
2022-11-24T01:13:13.338Z,2.22
2022-11-24T01:15:41.210Z,2.38
2022-11-24T01:18:08.899Z,2.65
2022-11-24T01:20:38.188Z,2.60
2022-11-24T01:23:05.881Z,2.83
2022-11-24T01:25:34.972Z,3.22
2022-11-24T01:28:02.701Z,3.35
2022-11-24T01:30:30.455Z,2.47
2022-11-24T01:32:58.141Z,2.58
2022-11-24T01:35:25.732Z,2.70
2022-11-24T01:37:53.377Z,3.20
2022-11-24T01:40:23.159Z,2.70
2022-11-24T01:42:54.051Z,3.15
2022-11-24T01:45:41.610Z,3.10
2022-11-24T01:48:16.948Z,2.13
2022-11-24T01:50:45.179Z,2.63
2022-11-24T01:55:42.556Z,2.80
2022-11-24T01:58:15.391Z,2.53
2022-11-24T02:00:45.812Z,2.58
2022-11-24T02:03:17.059Z,2.30
2022-11-24T02:05:50.201Z,2.50
2022-11-24T02:08:22.843Z,1.88
2022-11-24T02:10:50.648Z,1.98
2022-11-24T02:13:20.456Z,2.42
2022-11-24T02:15:48.515Z,1.92
2022-11-24T02:18:16.261Z,2.17
2022-11-24T02:20:44.155Z,2.47
2022-11-24T02:23:21.153Z,1.83
2022-11-24T02:25:57.504Z,2.22
2022-11-24T02:28:30.053Z,1.52
2022-11-24T02:30:58.988Z,2.30
2022-11-24T02:33:27.394Z,1.55
2022-11-24T02:35:55.613Z,2.00
2022-11-24T02:38:31.147Z,1.83
2022-11-24T02:41:01.740Z,2.53
2022-11-24T02:43:33.423Z,2.45
2022-11-24T02:46:01.062Z,1.95
2022-11-24T02:48:28.796Z,1.67
2022-11-24T02:50:56.512Z,1.88
2022-11-24T02:53:24.212Z,1.30
2022-11-24T02:55:52.101Z,1.85
2022-11-24T02:58:19.742Z,2.40
2022-11-24T03:00:49.269Z,2.00
2022-11-24T03:03:16.996Z,1.90
2022-11-24T03:05:44.703Z,1.65
2022-11-24T03:08:13.014Z,2.38
2022-11-24T03:10:40.938Z,1.92
2022-11-24T03:13:08.951Z,1.63
2022-11-24T03:15:37.125Z,2.00
2022-11-24T03:18:06.335Z,1.83
2022-11-24T03:20:34.181Z,1.63
2022-11-24T03:23:01.886Z,1.88
2022-11-24T03:25:29.592Z,2.20
2022-11-24T03:27:58.248Z,2.65
2022-11-24T03:30:26.270Z,1.98
2022-11-24T03:32:54.517Z,1.63
2022-11-24T03:35:23.638Z,2.08
2022-11-24T03:37:51.382Z,1.70
2022-11-24T03:40:19.067Z,2.03
2022-11-24T03:42:46.739Z,1.90
2022-11-24T03:45:46.142Z,1.85
2022-11-24T03:48:02.539Z,1.50
2022-11-24T03:50:31.570Z,1.88
2022-11-24T03:52:59.302Z,1.65
2022-11-24T03:55:26.971Z,2.17
2022-11-24T03:57:54.661Z,1.88
2022-11-24T04:00:22.601Z,1.63
2022-11-24T04:02:50.321Z,1.80
2022-11-24T04:05:18.211Z,2.28
2022-11-24T04:07:47.375Z,2.50
2022-11-24T04:10:15.183Z,2.20
2022-11-24T04:12:44.589Z,2.28
2022-11-24T04:15:13.396Z,2.10
2022-11-24T04:17:41.291Z,1.90
2022-11-24T04:20:10.836Z,2.53
2022-11-24T04:22:38.692Z,2.13
2022-11-24T04:25:09.682Z,1.90
2022-11-24T04:27:38.375Z,2.08
2022-11-24T04:30:07.893Z,2.50
2022-11-24T04:32:35.615Z,1.83
2022-11-24T04:35:03.323Z,1.95
2022-11-24T04:37:30.960Z,1.92
2022-11-24T04:39:58.616Z,2.42
2022-11-24T04:42:27.672Z,2.15
2022-11-24T04:44:55.608Z,2.63
2022-11-24T04:47:25.015Z,2.25
2022-11-24T04:49:53.706Z,1.63
2022-11-24T04:52:23.829Z,2.60
2022-11-24T04:54:51.848Z,2.25
2022-11-24T04:57:23.685Z,2.17
2022-11-24T04:59:53.632Z,2.90
2022-11-24T05:02:22.099Z,2.22
2022-11-24T05:04:50.465Z,2.63
2022-11-24T05:07:19.618Z,2.70
2022-11-24T05:10:05.481Z,2.60
2022-11-24T05:12:33.573Z,2.40
2022-11-24T05:15:04.032Z,2.78
2022-11-24T05:17:32.722Z,2.22
2022-11-24T05:20:00.592Z,2.08
2022-11-24T05:22:30.219Z,1.88
2022-11-24T05:24:57.939Z,1.58
2022-11-24T05:27:25.975Z,1.13
2022-11-24T05:29:53.671Z,1.50
2022-11-24T05:32:22.797Z,1.60
2022-11-24T05:34:50.541Z,1.42
2022-11-24T05:37:18.445Z,1.55
2022-11-24T05:39:46.144Z,1.67
2022-11-24T05:42:31.583Z,1.20
2022-11-24T05:44:59.639Z,1.20
2022-11-24T05:47:28.675Z,1.02
2022-11-24T05:49:56.440Z,1.00
2022-11-24T05:52:24.114Z,0.90
2022-11-24T05:54:51.839Z,0.90
2022-11-24T05:57:19.657Z,1.08
2022-11-24T05:59:47.376Z,0.80
2022-11-24T06:02:15.177Z,0.90
2022-11-24T06:04:44.309Z,1.23
2022-11-24T06:07:13.187Z,0.90
2022-11-24T06:09:42.859Z,1.30
2022-11-24T06:12:12.547Z,1.40
2022-11-24T06:14:40.921Z,1.27
2022-11-24T06:17:09.353Z,1.17
2022-11-24T06:19:41.695Z,0.85
2022-11-24T06:22:11.347Z,1.10
2022-11-24T06:24:39.071Z,1.38
2022-11-24T06:27:06.798Z,0.90
2022-11-24T06:29:34.529Z,1.30
2022-11-24T06:32:02.327Z,1.50
2022-11-24T06:34:30.100Z,1.30
2022-11-24T06:36:57.805Z,1.65
2022-11-24T06:39:26.968Z,1.33
2022-11-24T06:41:54.716Z,1.85
2022-11-24T06:44:22.644Z,1.88
2022-11-24T06:46:50.488Z,2.08
2022-11-24T06:49:18.252Z,1.60
2022-11-24T06:51:45.960Z,2.17
2022-11-24T06:54:16.588Z,2.50
2022-11-24T06:56:45.686Z,2.35
2022-11-24T06:59:18.535Z,2.88
2022-11-24T07:01:46.923Z,2.88
2022-11-24T07:04:14.958Z,3.72
2022-11-24T07:06:42.987Z,3.90
2022-11-24T07:09:12.159Z,4.18
2022-11-24T07:11:40.922Z,3.58
2022-11-24T07:14:10.275Z,4.47
2022-11-24T07:16:38.020Z,5.25
2022-11-24T07:19:05.860Z,4.43
2022-11-24T07:21:33.608Z,4.60
2022-11-24T07:24:01.279Z,6.20
2022-11-24T07:26:29.059Z,5.32
2022-11-24T07:28:56.796Z,5.60
2022-11-24T07:31:26.140Z,5.43
2022-11-24T07:33:55.400Z,5.43
2022-11-24T07:36:23.929Z,5.05
2022-11-24T07:38:51.927Z,5.90
2022-11-24T07:41:20.883Z,5.20
2022-11-24T07:43:49.212Z,5.50
2022-11-24T07:46:19.015Z,5.47
2022-11-24T07:48:48.481Z,5.70
2022-11-24T07:51:16.749Z,4.90
2022-11-24T07:53:45.176Z,5.13
2022-11-24T07:56:13.171Z,5.05
2022-11-24T07:58:40.851Z,5.18
2022-11-24T08:01:13.170Z,5.38
2022-11-24T08:03:41.626Z,5.47
2022-11-24T08:06:31.851Z,5.18
2022-11-24T08:08:59.830Z,5.35
2022-11-24T08:11:28.266Z,5.20
2022-11-24T08:13:56.107Z,5.00
2022-11-24T08:16:24.130Z,4.22
2022-11-24T08:18:53.870Z,5.65
2022-11-24T08:21:24.313Z,4.93
2022-11-24T08:23:55.755Z,4.65
2022-11-24T08:26:24.988Z,4.70
2022-11-24T08:28:56.474Z,4.32
2022-11-24T08:31:24.937Z,4.93
2022-11-24T08:33:52.746Z,4.47
2022-11-24T08:36:22.000Z,4.53
2022-11-24T08:38:50.024Z,5.05
2022-11-24T08:41:18.524Z,5.05
2022-11-24T08:43:46.372Z,5.07
2022-11-24T08:46:17.257Z,5.63
2022-11-24T08:48:45.217Z,4.85
2022-11-24T08:51:15.038Z,4.28
2022-11-24T08:53:44.530Z,4.32
2022-11-24T08:56:14.112Z,4.60
2022-11-24T08:58:42.499Z,4.18
2022-11-24T09:01:13.224Z,3.63
2022-11-24T09:03:46.640Z,4.32
2022-11-24T09:06:18.958Z,4.75
2022-11-24T09:08:48.560Z,3.95
2022-11-24T09:11:18.024Z,4.30
2022-11-24T09:13:46.473Z,4.43
2022-11-24T09:16:16.439Z,4.63
2022-11-24T09:18:44.326Z,4.30
2022-11-24T09:21:14.196Z,3.47
2022-11-24T09:23:42.687Z,3.75
2022-11-24T09:26:14.160Z,3.35
2022-11-24T09:28:42.896Z,3.63
2022-11-24T09:31:12.907Z,4.45
2022-11-24T09:33:41.594Z,3.28
2022-11-24T09:36:10.225Z,3.38
2022-11-24T09:38:37.997Z,3.50
2022-11-24T09:41:32.687Z,3.25
2022-11-24T09:44:09.052Z,3.00
2022-11-24T09:46:44.461Z,2.90
2022-11-24T09:49:18.531Z,2.65
2022-11-24T09:51:50.945Z,2.60
2022-11-24T09:54:23.960Z,2.65
2022-11-24T09:56:53.463Z,2.10
2022-11-24T09:59:26.242Z,2.40
2022-11-24T10:01:55.820Z,2.38
2022-11-24T10:04:27.214Z,1.85
2022-11-24T10:07:05.311Z,2.08
2022-11-24T10:09:46.255Z,2.20
2022-11-24T10:12:29.193Z,2.53
2022-11-24T10:15:16.691Z,1.98
2022-11-24T10:17:56.944Z,2.45
2022-11-24T10:20:39.006Z,1.77
2022-11-24T10:23:22.988Z,1.67
2022-11-24T10:25:55.896Z,2.10
2022-11-24T10:28:28.230Z,1.88
2022-11-24T10:31:14.549Z,2.13
2022-11-24T10:33:43.743Z,2.03
2022-11-24T10:36:17.990Z,1.85
2022-11-24T10:38:54.575Z,1.83
2022-11-24T10:41:25.780Z,1.75
2022-11-24T10:43:59.141Z,1.77
2022-11-24T10:46:28.617Z,1.98
2022-11-24T10:49:00.164Z,2.00
2022-11-24T10:51:42.850Z,1.73
2022-11-24T10:54:17.072Z,1.50
2022-11-24T10:56:46.883Z,1.85
2022-11-24T10:59:40.525Z,1.83
2022-11-24T11:02:29.105Z,2.25
2022-11-24T11:04:57.139Z,1.63
2022-11-24T11:10:19.759Z,1.83
2022-11-24T11:12:47.736Z,2.35
2022-11-24T11:17:57.283Z,1.90
2022-11-24T11:20:30.013Z,2.30
2022-11-24T11:22:59.802Z,2.20
2022-11-24T11:25:32.947Z,2.10
2022-11-24T11:28:24.900Z,2.42
2022-11-24T11:31:20.440Z,2.13
2022-11-24T11:34:08.340Z,2.20
2022-11-24T11:36:43.174Z,2.67
2022-11-24T11:39:23.301Z,2.22
2022-11-24T11:41:52.925Z,2.15
2022-11-24T11:44:30.979Z,2.33
2022-11-24T11:47:01.411Z,1.90
2022-11-24T11:49:29.176Z,2.20
2022-11-24T11:52:21.560Z,1.88
2022-11-24T11:55:14.385Z,2.50
2022-11-24T11:57:51.740Z,2.85
2022-11-24T12:00:21.896Z,2.10
2022-11-24T12:03:22.051Z,2.40
2022-11-24T12:06:00.299Z,2.17
2022-11-24T12:09:03.205Z,1.77
2022-11-24T12:11:33.064Z,2.40
2022-11-24T12:14:21.399Z,2.13
2022-11-24T12:17:00.944Z,2.30
2022-11-24T12:19:53.067Z,1.90
2022-11-24T12:22:33.268Z,2.08
2022-11-24T12:25:12.988Z,2.10
2022-11-24T12:27:51.201Z,2.25
2022-11-24T12:30:20.816Z,2.10
2022-11-24T12:33:09.632Z,2.22
2022-11-24T12:35:43.860Z,2.35
2022-11-24T12:38:23.433Z,2.50
2022-11-24T12:43:59.102Z,2.25
2022-11-24T12:46:36.275Z,2.38
2022-11-24T12:49:16.335Z,2.35
2022-11-24T12:51:50.064Z,2.15
2022-11-24T12:54:21.736Z,2.80
2022-11-24T12:57:01.117Z,2.08
2022-11-24T12:59:38.049Z,2.25
2022-11-24T13:02:31.060Z,2.30
2022-11-24T13:05:09.447Z,1.98
2022-11-24T13:07:44.086Z,2.03
2022-11-24T13:11:00.378Z,2.20
2022-11-24T13:13:36.540Z,2.53
2022-11-24T13:19:13.506Z,2.20
2022-11-24T13:21:51.801Z,2.10
2022-11-24T13:24:26.459Z,2.00
2022-11-24T13:26:56.173Z,2.33
2022-11-24T13:29:35.601Z,2.22
2022-11-24T13:32:52.112Z,2.15
2022-11-24T13:35:19.963Z,2.28
2022-11-24T13:37:53.086Z,2.72
2022-11-24T13:40:54.303Z,2.05
2022-11-24T13:43:30.149Z,2.65
2022-11-24T13:45:57.788Z,2.50
2022-11-24T13:51:23.158Z,2.70
2022-11-24T13:53:54.143Z,2.00
2022-11-24T13:56:27.362Z,2.00
2022-11-24T13:58:57.125Z,2.05
2022-11-24T14:01:26.246Z,2.13
2022-11-24T14:07:06.754Z,2.05
2022-11-24T14:09:37.963Z,2.15
2022-11-24T14:12:14.061Z,2.20
2022-11-24T14:14:42.412Z,2.25
2022-11-24T14:17:17.521Z,2.05
2022-11-24T14:19:46.822Z,2.80
2022-11-24T14:22:18.810Z,2.00
2022-11-24T14:24:47.233Z,2.03
2022-11-24T14:27:18.518Z,1.83
2022-11-24T14:29:57.195Z,1.70
2022-11-24T14:32:25.121Z,1.80
2022-11-24T14:37:21.991Z,1.85
2022-11-24T14:39:49.681Z,1.80
2022-11-24T14:42:21.259Z,1.75
2022-11-24T14:44:55.545Z,1.70
2022-11-24T14:47:31.353Z,1.40
2022-11-24T14:50:10.037Z,1.20
2022-11-24T14:52:45.579Z,1.40
2022-11-24T14:55:25.832Z,1.58
2022-11-24T14:57:55.043Z,1.90
2022-11-24T15:00:31.243Z,1.80
2022-11-24T15:03:16.166Z,1.33
2022-11-24T15:05:56.857Z,1.70
2022-11-24T15:08:26.276Z,1.35
2022-11-24T15:10:59.039Z,1.83
2022-11-24T15:13:29.907Z,1.80
2022-11-24T15:16:02.802Z,1.67
2022-11-24T15:18:38.494Z,1.85
2022-11-24T15:21:06.472Z,1.50
2022-11-24T15:26:30.234Z,1.45
2022-11-24T15:29:01.183Z,1.33
2022-11-24T15:31:28.828Z,1.73
2022-11-24T15:33:56.476Z,1.90
2022-11-24T15:36:24.156Z,1.63
2022-11-24T15:38:52.260Z,1.70
2022-11-24T15:41:22.126Z,1.48
2022-11-24T15:43:49.867Z,1.67
2022-11-24T15:46:18.850Z,1.80
2022-11-24T15:48:46.805Z,2.28
2022-11-24T15:53:46.114Z,1.75
2022-11-24T15:56:16.924Z,2.08
2022-11-24T15:58:44.606Z,2.22
2022-11-24T16:01:12.287Z,2.30
2022-11-24T16:03:49.184Z,1.95
2022-11-24T16:06:24.758Z,1.80
2022-11-24T16:08:53.015Z,2.20
2022-11-24T16:11:21.397Z,1.65
2022-11-24T16:13:52.796Z,2.53
2022-11-24T16:16:22.872Z,1.70
2022-11-24T16:18:52.069Z,2.03
2022-11-24T16:21:19.799Z,2.60
2022-11-24T16:23:48.675Z,2.10
2022-11-24T16:26:16.427Z,1.90
2022-11-24T16:28:45.758Z,1.90
2022-11-24T16:31:15.868Z,1.88
2022-11-24T16:33:44.698Z,2.33
2022-11-24T16:36:13.915Z,1.92
2022-11-24T16:38:41.774Z,1.70
2022-11-24T16:41:10.534Z,1.90
2022-11-24T16:43:38.446Z,1.65
2022-11-24T16:46:19.351Z,1.85
2022-11-24T16:48:48.341Z,1.98
2022-11-24T16:51:18.554Z,2.00
2022-11-24T16:53:46.272Z,1.33
2022-11-24T16:56:14.823Z,1.98
2022-11-24T16:58:42.972Z,1.73
2022-11-24T17:01:12.499Z,1.83
2022-11-24T17:03:40.810Z,2.00
2022-11-24T17:06:10.243Z,1.75
2022-11-24T17:08:40.878Z,2.55
2022-11-24T17:11:09.663Z,2.58
2022-11-24T17:13:37.821Z,2.17
2022-11-24T17:16:06.247Z,2.60
2022-11-24T17:18:34.893Z,2.80
2022-11-24T17:21:09.247Z,2.53
2022-11-24T17:23:39.039Z,2.05
2022-11-24T17:26:08.668Z,2.38
2022-11-24T17:28:36.899Z,2.20
2022-11-24T17:31:09.455Z,2.17
2022-11-24T17:33:40.722Z,2.20
2022-11-24T17:36:09.265Z,1.98
2022-11-24T17:38:37.273Z,2.58
2022-11-24T17:43:39.291Z,1.98
2022-11-24T17:46:07.400Z,2.83
2022-11-24T17:48:36.548Z,2.10
2022-11-24T17:51:05.932Z,2.05
2022-11-24T17:53:33.629Z,1.98
2022-11-24T17:56:02.121Z,2.30
2022-11-24T17:58:32.584Z,2.70
2022-11-24T18:01:01.187Z,2.33
2022-11-24T18:03:31.548Z,2.30
2022-11-24T18:05:59.242Z,2.22
2022-11-24T18:08:26.937Z,1.83
2022-11-24T18:10:54.567Z,3.00
2022-11-24T18:13:48.924Z,2.20
2022-11-24T18:16:12.661Z,2.65
2022-11-24T18:18:41.455Z,2.10
2022-11-24T18:21:14.928Z,2.15
2022-11-24T18:23:43.355Z,2.53
2022-11-24T18:26:14.814Z,2.45
2022-11-24T18:28:43.169Z,2.13
2022-11-24T18:31:14.212Z,2.20
2022-11-24T18:33:43.555Z,2.10
2022-11-24T18:36:14.221Z,2.35
2022-11-24T18:38:41.936Z,2.20
2022-11-24T18:41:10.496Z,2.10
2022-11-24T18:43:38.551Z,1.85
2022-11-24T18:46:07.805Z,2.17
2022-11-24T18:48:36.964Z,2.30
2022-11-24T18:51:05.110Z,2.30
2022-11-24T18:56:02.167Z,2.45
2022-11-24T18:58:31.156Z,1.98
2022-11-24T19:01:08.065Z,2.25
2022-11-24T19:03:44.995Z,1.75
2022-11-24T19:06:17.645Z,2.25
2022-11-24T19:08:45.808Z,2.03
2022-11-24T19:13:44.991Z,1.95
2022-11-24T19:16:13.166Z,1.77
2022-11-24T19:18:42.274Z,2.15
2022-11-24T19:21:10.556Z,1.92
2022-11-24T19:23:38.371Z,2.50
2022-11-24T19:26:06.885Z,2.67
2022-11-24T19:28:34.800Z,2.10
2022-11-24T19:31:03.027Z,2.60
2022-11-24T19:33:31.529Z,2.17
2022-11-24T19:36:06.092Z,2.00
2022-11-24T19:38:35.597Z,2.15
2022-11-24T19:41:04.769Z,1.95
2022-11-24T19:43:33.150Z,2.05
2022-11-24T19:46:02.200Z,2.28
2022-11-24T19:48:34.129Z,2.22
2022-11-24T19:51:04.765Z,1.92
2022-11-24T19:53:32.719Z,2.38
2022-11-24T19:56:04.541Z,2.38
2022-11-24T19:58:32.827Z,2.03
2022-11-24T20:01:07.040Z,2.28
2022-11-24T20:03:35.033Z,2.38
2022-11-24T20:06:04.579Z,2.20
2022-11-24T20:08:33.986Z,2.35
2022-11-24T20:11:05.720Z,2.90
2022-11-24T20:13:35.012Z,2.22
2022-11-24T20:16:09.095Z,2.45
2022-11-24T20:18:41.998Z,2.03
2022-11-24T20:21:13.732Z,2.58
2022-11-24T20:23:42.072Z,2.85
2022-11-24T20:26:12.198Z,1.88
2022-11-24T20:28:40.222Z,1.88
2022-11-24T20:31:10.324Z,2.17
2022-11-24T20:33:38.726Z,2.58
2022-11-24T20:36:08.626Z,2.17
2022-11-24T20:38:38.452Z,1.95
2022-11-24T20:41:09.397Z,2.47
2022-11-24T20:43:37.366Z,1.95
2022-11-24T20:46:06.032Z,2.03
2022-11-24T20:48:38.831Z,2.80
2022-11-24T20:51:11.584Z,2.10
2022-11-24T20:53:41.593Z,2.33
2022-11-24T20:56:11.065Z,2.03
2022-11-24T20:58:39.533Z,2.33
2022-11-24T21:01:08.436Z,2.05
2022-11-24T21:03:41.388Z,1.75
2022-11-24T21:06:11.762Z,2.05
2022-11-24T21:08:42.016Z,2.67
2022-11-24T21:11:12.368Z,2.58
2022-11-24T21:13:41.629Z,2.47
2022-11-24T21:16:13.752Z,2.50
2022-11-24T21:18:41.741Z,2.60
2022-11-24T21:21:09.536Z,2.35
2022-11-24T21:23:37.474Z,2.05
2022-11-24T21:26:13.154Z,1.73
2022-11-24T21:28:44.847Z,2.00
2022-11-24T21:31:14.678Z,1.95
2022-11-24T21:33:43.266Z,2.10
2022-11-24T21:36:11.352Z,2.45
2022-11-24T21:38:39.018Z,2.30
2022-11-24T21:41:09.376Z,2.60
2022-11-24T21:43:37.337Z,2.80
2022-11-24T21:46:06.774Z,2.22
2022-11-24T21:48:35.683Z,2.60
2022-11-24T21:51:05.023Z,2.08
2022-11-24T21:53:34.313Z,1.80
2022-11-24T21:56:03.515Z,2.50
2022-11-24T21:58:32.873Z,2.40
2022-11-24T22:01:02.902Z,2.67
2022-11-24T22:03:30.957Z,2.25
2022-11-24T22:06:00.071Z,2.22
2022-11-24T22:08:29.156Z,2.08
2022-11-24T22:11:01.643Z,2.88
2022-11-24T22:13:29.749Z,2.22
2022-11-24T22:18:35.073Z,2.22
2022-11-24T22:21:03.745Z,2.05
2022-11-24T22:23:31.812Z,1.30
2022-11-24T22:26:03.930Z,2.67
2022-11-24T22:28:32.996Z,2.78
2022-11-24T22:31:06.076Z,1.75
2022-11-24T22:33:33.875Z,2.10
2022-11-24T22:36:02.348Z,2.90
2022-11-24T22:38:31.372Z,2.55
2022-11-24T22:41:02.987Z,1.88
2022-11-24T22:43:32.594Z,2.50
2022-11-24T22:46:05.751Z,2.40
2022-11-24T22:48:33.890Z,1.95
2022-11-24T22:51:03.231Z,2.65
2022-11-24T22:53:30.955Z,2.25
2022-11-24T22:56:02.256Z,2.67
2022-11-24T22:58:30.352Z,2.00
2022-11-24T23:00:58.020Z,3.05
2022-11-24T23:03:27.156Z,2.50
2022-11-24T23:05:54.869Z,2.53
2022-11-24T23:08:22.633Z,2.42
2022-11-24T23:10:50.246Z,2.42
2022-11-24T23:13:17.896Z,2.58
2022-11-24T23:15:45.541Z,3.17
2022-11-24T23:18:13.823Z,2.35
2022-11-24T23:20:42.775Z,2.05
2022-11-24T23:23:10.436Z,2.13
2022-11-24T23:25:38.051Z,2.15
2022-11-24T23:28:06.041Z,2.45
2022-11-24T23:30:33.728Z,2.33
2022-11-24T23:33:01.376Z,2.33
2022-11-24T23:35:28.996Z,1.83
2022-11-24T23:38:07.554Z,2.05
2022-11-24T23:40:35.692Z,2.40
2022-11-24T23:43:03.337Z,1.60
2022-11-24T23:45:31.017Z,2.80
2022-11-24T23:47:58.684Z,2.20
2022-11-24T23:50:26.383Z,2.30
2022-11-24T23:52:54.404Z,2.00
2022-11-24T23:55:23.409Z,2.83
2022-11-24T23:57:51.065Z,2.17
